Terminal Aerodrome Forecast
Issued by NWS Upton, NY

Home | Current Version | Previous Version | Text Only | Print | Product List | Glossary On
Versions: 1 2 3 4 5 6 7 8 9 10 11 12 13 14 15 16 17 18 19 20 21 22 23 24 25 26 27 28 29
000
FTUS41 KOKX 042300
TAFBDR
TAF
KBDR 042331Z 0500/0524 VRB03KT 6SM BR BKN050 OVC080
      TEMPO 0500/0503 2SM -RA BR SCT008 OVC025
     FM050300 VRB03KT 2SM -RA BR SCT008 OVC025
     FM050500 34006KT 1SM -RASNPL BR OVC008
     FM050700 36006KT 1/2SM SN FZFG OVC005
     FM051300 36010KT 1SM -SN BR OVC008
     FM051700 35010G16KT 2SM -SN BR SCT008 OVC015
     FM052300 32008KT P6SM BKN020 OVC050=

USA.gov is the U.S. government's official web portal to all federal, state and local government web resources and services.